Time;durP1;ratioP1;P1;durP2;ratioP2;P2;SDS_P1;SDS_P2;PMS_P1;PMS_P2;Temp;Humidity;BMP_temperature;BMP_pressure;BME280_temperature;BME280_humidity;BME280_pressure;Samples;Min_cycle;Max_cycle;Signal;HPM_P1;HPM_P2
2024/02/22 00:01:07;;;;;;;13.43;3.15;;;;;;;8.73;94.51;97935.81;4986327;28;20042;-62
2024/02/22 00:03:34;;;;;;;19.73;5.03;;;;;;;8.74;94.62;97926.31;4985641;28;20042;-60
2024/02/22 00:06:02;;;;;;;45.63;6.07;;;;;;;8.72;94.70;97937.78;4986975;28;20061;-60
2024/02/22 00:08:29;;;;;;;16.63;3.22;;;;;;;8.71;94.94;97935.44;4986171;28;20046;-60
2024/02/22 00:11:01;;;;;;;13.10;4.35;;;;;;;8.69;94.73;97935.81;4986268;28;20054;-60
2024/02/22 00:13:28;;;;;;;12.95;3.10;;;;;;;8.67;94.91;97927.16;4973721;28;20042;-61
2024/02/22 00:15:56;;;;;;;11.32;2.78;;;;;;;8.67;94.96;97937.41;4986385;28;20054;-61
2024/02/22 00:18:23;;;;;;;14.60;2.80;;;;;;;8.67;95.01;97921.66;4978439;28;20532;-61
2024/02/22 00:20:52;;;;;;;20.77;4.35;;;;;;;8.65;95.08;97921.28;4984292;28;20057;-60
2024/02/22 00:23:19;;;;;;;17.25;3.15;;;;;;;8.64;95.27;97933.47;4986410;28;20425;-61
2024/02/22 00:25:46;;;;;;;17.27;3.80;;;;;;;8.62;95.22;97949.66;4989023;28;20062;-60
2024/02/22 00:28:14;;;;;;;19.13;4.18;;;;;;;8.60;95.35;97937.44;4988502;28;20050;-62
2024/02/22 00:30:41;;;;;;;7.50;2.42;;;;;;;8.56;95.47;97937.44;4987304;28;20058;-61
2024/02/22 00:33:08;;;;;;;17.98;2.80;;;;;;;8.52;95.65;97920.91;4989611;28;20050;-61
2024/02/22 00:35:36;;;;;;;14.65;3.83;;;;;;;8.47;95.80;97906.78;4986932;28;20065;-61
2024/02/22 00:38:03;;;;;;;14.40;3.38;;;;;;;8.45;96.11;97892.59;4989252;28;20050;-61
2024/02/22 00:40:30;;;;;;;21.98;5.28;;;;;;;8.42;96.22;97883.13;4987637;28;20053;-62
2024/02/22 00:42:58;;;;;;;23.80;3.90;;;;;;;8.39;96.30;97872.16;4982928;28;20058;-60
2024/02/22 00:45:25;;;;;;;23.80;3.92;;;;;;;8.38;96.64;97871.34;4999676;28;20051;-61
2024/02/22 00:47:56;;;;;;;16.02;3.85;;;;;;;8.35;96.76;97857.56;4989409;28;20062;-61
2024/02/22 00:50:23;;;;;;;23.30;3.63;;;;;;;8.33;97.07;97865.47;4989011;28;20053;-62
2024/02/22 00:52:51;;;;;;;16.35;4.35;;;;;;;8.30;97.19;97871.78;4989117;28;20061;-60
2024/02/22 00:55:18;;;;;;;19.00;4.78;;;;;;;8.26;97.45;97901.31;4983697;28;20049;-61
2024/02/22 00:57:46;;;;;;;15.25;3.50;;;;;;;8.24;97.82;97920.97;4988333;28;20798;-60
2024/02/22 01:00:14;;;;;;;24.08;5.07;;;;;;;8.23;97.93;97913.91;4988148;28;20054;-59
2024/02/22 01:02:42;;;;;;;13.85;4.63;;;;;;;8.19;98.13;97902.09;4988813;28;20065;-59
2024/02/22 01:05:09;;;;;;;11.70;2.90;;;;;;;8.18;98.19;97875.72;4987077;28;20496;-60
2024/02/22 01:07:37;;;;;;;18.98;3.50;;;;;;;8.18;98.21;97861.19;4988512;28;20407;-60
2024/02/22 01:10:05;;;;;;;19.00;4.78;;;;;;;8.15;98.33;97854.50;4988431;28;20547;-59
2024/02/22 01:12:33;;;;;;;17.55;3.80;;;;;;;8.13;98.39;97847.81;4975279;28;20398;-58
2024/02/22 01:15:01;;;;;;;16.10;2.63;;;;;;;8.11;98.42;97850.94;4970366;28;20054;-59
2024/02/22 01:17:29;;;;;;;14.98;3.45;;;;;;;8.10;98.60;97834.81;4988449;28;20057;-59
2024/02/22 01:19:56;;;;;;;11.80;3.08;;;;;;;8.08;98.56;97821.44;4981079;28;20401;-59
2024/02/22 01:22:23;;;;;;;10.80;2.92;;;;;;;8.07;98.63;97817.13;4988123;28;20061;-60
2024/02/22 01:24:51;;;;;;;16.65;2.40;;;;;;;8.06;98.68;97812.78;4988484;28;20714;-60
2024/02/22 01:27:18;;;;;;;11.15;3.15;;;;;;;8.06;98.76;97828.53;4986375;28;20057;-61
2024/02/22 01:29:46;;;;;;;13.07;2.85;;;;;;;8.03;98.88;97835.63;4973977;28;20042;-61
2024/02/22 01:32:13;;;;;;;12.45;3.08;;;;;;;7.99;98.89;97835.63;4989935;28;20055;-61
2024/02/22 01:34:41;;;;;;;14.25;3.83;;;;;;;7.99;98.95;97837.63;4988125;28;20039;-60
2024/02/22 01:37:09;;;;;;;18.95;2.72;;;;;;;7.98;98.99;97834.06;4969469;28;20145;-60
2024/02/22 01:39:37;;;;;;;18.20;2.80;;;;;;;7.94;99.29;97819.50;4987703;28;20057;-60
2024/02/22 01:42:04;;;;;;;17.75;2.58;;;;;;;7.91;99.54;97825.84;4987402;28;20819;-60
2024/02/22 01:44:32;;;;;;;22.27;3.03;;;;;;;7.90;99.65;97829.78;4987511;28;20436;-60
2024/02/22 01:47:00;;;;;;;15.45;4.18;;;;;;;7.87;99.83;97852.59;4986696;28;20049;-60
2024/02/22 01:49:28;;;;;;;5.70;1.45;;;;;;;7.76;99.69;97873.06;4987542;28;20050;-60
2024/02/22 01:51:58;;;;;;;6.38;1.10;;;;;;;7.42;98.88;97866.41;4987890;28;20061;-58
2024/02/22 01:54:26;;;;;;;2.90;0.68;;;;;;;7.11;99.03;97865.25;4987329;28;20054;-60
2024/02/22 01:56:54;;;;;;;3.80;0.95;;;;;;;6.93;99.46;97891.94;4986858;28;20065;-58
2024/02/22 01:59:23;;;;;;;4.63;0.68;;;;;;;6.79;99.88;97858.91;4986972;28;20061;-62
2024/02/22 02:01:50;;;;;;;3.33;0.90;;;;;;;6.71;100.00;97853.41;4986572;28;20531;-60
2024/02/22 02:04:19;;;;;;;3.17;1.05;;;;;;;6.65;100.00;97851.41;4986529;28;20042;-61
2024/02/22 02:06:46;;;;;;;3.20;0.73;;;;;;;6.57;100.00;97847.88;4987338;28;20046;-60
2024/02/22 02:09:14;;;;;;;4.40;1.30;;;;;;;6.55;100.00;97855.72;4987362;28;20620;-61
2024/02/22 02:11:44;;;;;;;1.10;0.30;;;;;;;6.52;100.00;97855.72;4986488;28;20058;-60
2024/02/22 02:14:12;;;;;;;6.03;0.73;;;;;;;6.49;100.00;97846.28;4987903;28;20046;-60
2024/02/22 02:16:39;;;;;;;2.92;0.40;;;;;;;6.45;100.00;97851.00;4992077;28;20054;-61
2024/02/22 02:19:10;;;;;;;1.00;0.30;;;;;;;6.43;100.00;97858.06;4987643;28;20058;-60
2024/02/22 02:22:07;;;;;;;2.35;0.28;;;;;;;6.34;100.00;97860.38;4977200;28;20048;-60
2024/02/22 02:24:40;;;;;;;4.95;1.75;;;;;;;6.28;100.00;97837.97;4986111;28;20054;-60
2024/02/22 02:27:08;;;;;;;0.50;0.25;;;;;;;6.23;100.00;97804.59;4987258;28;20413;-59
2024/02/22 02:29:35;;;;;;;2.72;0.13;;;;;;;6.17;100.00;97756.72;4987245;28;20046;-60
2024/02/22 02:32:02;;;;;;;3.47;0.40;;;;;;;6.16;100.00;97728.47;4982410;28;20046;-60
2024/02/22 02:34:30;;;;;;;1.10;0.43;;;;;;;6.14;100.00;97692.38;4982071;28;20586;-60
2024/02/22 02:36:57;;;;;;;0.40;0.20;;;;;;;6.17;100.00;97653.09;4985799;28;20050;-60
2024/02/22 02:39:25;;;;;;;1.75;0.40;;;;;;;6.18;100.00;97624.47;4986846;28;20042;-59
2024/02/22 02:41:52;;;;;;;2.22;0.32;;;;;;;6.19;100.00;97595.84;4986122;28;20046;-59
2024/02/22 02:44:19;;;;;;;5.57;1.42;;;;;;;6.22;100.00;97594.28;4986954;28;20049;-60
2024/02/22 02:46:47;;;;;;;2.45;0.40;;;;;;;6.22;100.00;97595.06;4982488;28;20061;-59
2024/02/22 02:49:14;;;;;;;4.88;0.30;;;;;;;6.22;100.00;97573.09;4986929;28;20053;-59
2024/02/22 02:51:42;;;;;;;0.73;0.30;;;;;;;6.20;100.00;97558.94;4986013;28;20046;-57
2024/02/22 02:54:09;;;;;;;1.60;0.43;;;;;;;6.19;100.00;97568.38;4986944;28;20050;-60
2024/02/22 02:56:36;;;;;;;3.17;0.50;;;;;;;6.18;100.00;97582.47;4986200;28;20046;-58
2024/02/22 02:59:03;;;;;;;3.20;0.38;;;;;;;6.18;100.00;97645.66;4985313;28;20058;-59
2024/02/22 03:01:31;;;;;;;0.75;0.40;;;;;;;6.15;100.00;97669.19;5069131;22;20534;-58
2024/02/22 03:03:59;;;;;;;0.57;0.30;;;;;;;6.10;100.00;97655.84;4986372;28;20393;-58
2024/02/22 03:06:26;;;;;;;0.52;0.30;;;;;;;6.10;100.00;97647.63;4986318;28;20072;-57
2024/02/22 03:08:53;;;;;;;4.22;0.73;;;;;;;6.06;100.00;97617.41;4986524;28;20518;-55
2024/02/22 03:11:21;;;;;;;1.77;0.63;;;;;;;6.09;100.00;97593.84;4985977;28;20143;-56
2024/02/22 03:13:48;;;;;;;2.30;1.10;;;;;;;6.09;100.00;97585.63;4987099;28;20592;-59
2024/02/22 03:16:16;;;;;;;2.90;1.23;;;;;;;6.12;100.00;97582.09;4991889;28;20057;-59
2024/02/22 03:18:43;;;;;;;5.80;1.02;;;;;;;6.05;100.00;97571.13;4983017;28;20057;-56
2024/02/22 03:21:11;;;;;;;1.45;0.30;;;;;;;6.05;100.00;97571.13;4986377;28;20677;-59
2024/02/22 03:23:38;;;;;;;2.40;0.73;;;;;;;6.07;100.00;97574.25;4987112;28;20054;-59
2024/02/22 03:26:06;;;;;;;1.65;0.40;;;;;;;6.09;100.00;97558.16;4986459;28;20523;-58
2024/02/22 03:28:34;;;;;;;1.55;0.30;;;;;;;6.11;100.00;97567.59;4986336;28;20050;-60
2024/02/22 03:31:02;;;;;;;2.25;0.40;;;;;;;6.15;100.00;97567.56;4985438;28;20674;-60
2024/02/22 03:33:30;;;;;;;3.15;0.32;;;;;;;6.16;100.00;97571.13;4986419;28;20046;-59
2024/02/22 03:35:57;;;;;;;2.60;0.40;;;;;;;6.14;100.00;97572.28;4986976;28;20062;-59
2024/02/22 03:38:25;;;;;;;1.08;0.35;;;;;;;6.12;100.00;97569.16;4986346;28;20039;-59
2024/02/22 03:40:53;;;;;;;3.47;0.40;;;;;;;6.11;100.00;97556.63;4986116;28;20043;-59
2024/02/22 03:43:21;;;;;;;6.32;0.70;;;;;;;6.12;100.00;97527.16;4986235;28;20108;-59
2024/02/22 03:45:48;;;;;;;3.83;0.60;;;;;;;6.11;100.00;97509.91;4985898;28;20050;-60
2024/02/22 03:48:16;;;;;;;3.35;0.50;;;;;;;6.11;100.00;97496.19;4986177;28;20523;-60
2024/02/22 03:50:43;;;;;;;4.57;0.60;;;;;;;6.12;100.00;97489.50;4984105;28;20050;-58
2024/02/22 03:53:11;;;;;;;4.03;2.53;;;;;;;6.11;100.00;97495.41;4985393;28;20050;-60
2024/02/22 03:55:38;;;;;;;2.83;0.57;;;;;;;6.07;100.00;97511.09;4984569;28;20054;-60
2024/02/22 03:58:06;;;;;;;1.90;0.60;;;;;;;6.05;100.00;97540.91;4986503;28;20046;-60
2024/02/22 04:00:34;;;;;;;2.72;0.40;;;;;;;6.05;100.00;97549.94;4989063;28;20048;-59
2024/02/22 04:03:02;;;;;;;2.20;0.28;;;;;;;6.06;100.00;97558.97;4987728;28;20062;-59
2024/02/22 04:05:30;;;;;;;1.60;0.28;;;;;;;6.05;100.00;97562.88;4990082;28;20054;-58
2024/02/22 04:07:58;;;;;;;2.92;0.45;;;;;;;6.03;100.00;97548.75;4989384;28;20058;-60
2024/02/22 04:10:25;;;;;;;6.97;1.20;;;;;;;6.01;100.00;97548.38;5004831;28;20057;-61
2024/02/22 04:12:52;;;;;;;0.68;0.35;;;;;;;6.01;100.00;97551.13;4989905;28;20681;-60
2024/02/22 04:15:20;;;;;;;2.28;0.30;;;;;;;5.99;100.00;97547.97;5003953;28;20065;-60
2024/02/22 04:17:48;;;;;;;2.30;0.20;;;;;;;5.99;100.00;97546.00;4989522;28;20058;-58
2024/02/22 04:20:15;;;;;;;2.53;0.30;;;;;;;6.01;100.00;97567.59;4989863;28;20050;-58
2024/02/22 04:22:48;;;;;;;0.98;0.57;;;;;;;5.99;100.00;97576.22;4989391;28;20038;-58
2024/02/22 04:25:15;;;;;;;3.20;0.40;;;;;;;5.97;100.00;97572.28;4989598;28;20055;-58
2024/02/22 04:27:43;;;;;;;1.02;0.20;;;;;;;5.99;100.00;97578.16;4989604;28;20397;-58
2024/02/22 04:30:14;;;;;;;0.55;0.40;;;;;;;5.97;100.00;97573.06;4989703;28;20057;-59
2024/02/22 04:32:41;;;;;;;3.88;0.40;;;;;;;5.97;100.00;97569.53;4987697;28;20046;-59
2024/02/22 04:35:10;;;;;;;0.45;0.25;;;;;;;5.99;100.00;97561.69;4989665;28;20595;-58
2024/02/22 04:37:38;;;;;;;0.50;0.20;;;;;;;6.00;100.00;97555.03;4988138;28;20482;-59
2024/02/22 04:40:07;;;;;;;1.88;0.30;;;;;;;6.00;100.00;97560.53;4988997;28;20698;-59
2024/02/22 04:42:34;;;;;;;3.85;0.30;;;;;;;6.00;100.00;97547.59;4982897;28;20090;-60
2024/02/22 04:45:04;;;;;;;1.58;0.30;;;;;;;5.99;100.00;97542.47;4986532;28;20150;-60
2024/02/22 04:47:35;;;;;;;4.70;0.40;;;;;;;5.99;100.00;97532.28;4989440;28;20054;-59
2024/02/22 04:50:03;;;;;;;0.35;0.20;;;;;;;6.00;100.00;97522.09;4989321;28;20419;-60
2024/02/22 04:52:31;;;;;;;3.55;0.40;;;;;;;6.00;100.00;97508.34;4988685;28;20062;-59
2024/02/22 04:55:03;;;;;;;3.97;0.38;;;;;;;5.99;100.00;97507.56;4988607;28;20058;-60
2024/02/22 04:57:30;;;;;;;3.25;0.73;;;;;;;6.00;100.00;97505.59;4989285;28;20046;-59
2024/02/22 04:59:57;;;;;;;1.05;0.35;;;;;;;5.99;100.00;97490.31;4989138;28;20069;-60
2024/02/22 05:02:25;;;;;;;1.00;0.30;;;;;;;5.98;100.00;97481.28;4988213;28;20061;-60
2024/02/22 05:04:52;;;;;;;0.90;0.20;;;;;;;6.00;100.00;97464.41;4988556;28;20066;-60
2024/02/22 05:07:21;;;;;;;1.35;0.40;;;;;;;5.99;100.00;97471.06;4988092;28;20046;-61
2024/02/22 05:09:48;;;;;;;2.55;0.40;;;;;;;5.96;100.00;97466.38;5003004;28;20412;-58
2024/02/22 05:12:16;;;;;;;3.40;0.68;;;;;;;5.92;100.00;97465.59;4987561;28;20053;-60
2024/02/22 05:14:44;;;;;;;2.38;0.43;;;;;;;5.91;100.00;97475.00;4988722;28;20046;-60
2024/02/22 05:17:14;;;;;;;1.73;0.30;;;;;;;5.88;100.00;97471.09;4989681;28;20062;-60
2024/02/22 05:19:42;;;;;;;1.10;0.30;;;;;;;5.85;100.00;97466.38;4988928;28;20046;-59
2024/02/22 05:22:09;;;;;;;1.17;0.30;;;;;;;5.84;100.00;97475.78;4988044;28;20062;-59
2024/02/22 05:24:36;;;;;;;2.35;0.17;;;;;;;5.86;100.00;97478.94;4988741;28;20058;-59
2024/02/22 05:27:04;;;;;;;1.13;0.20;;;;;;;5.85;100.00;97490.31;4988379;28;20520;-60
2024/02/22 05:29:32;;;;;;;3.55;0.40;;;;;;;5.84;100.00;97486.75;4982967;28;20047;-58
2024/02/22 05:32:00;;;;;;;2.08;0.20;;;;;;;5.82;100.00;97483.63;4984390;28;20043;-58
2024/02/22 05:34:27;;;;;;;2.28;0.32;;;;;;;5.80;100.00;97464.00;4987655;28;20058;-60
2024/02/22 05:36:55;;;;;;;1.52;0.30;;;;;;;5.80;100.00;97463.25;4981494;28;20050;-59
2024/02/22 05:39:22;;;;;;;3.78;0.60;;;;;;;5.80;100.00;97455.00;4987244;28;20053;-58
2024/02/22 05:41:51;;;;;;;3.08;0.82;;;;;;;5.78;100.00;97454.59;4987919;28;20059;-62
2024/02/22 05:44:18;;;;;;;7.68;3.10;;;;;;;5.77;100.00;97470.28;4987822;28;20066;-60
2024/02/22 05:46:47;;;;;;;2.00;0.40;;;;;;;5.76;100.00;97476.97;4988003;28;20050;-60
2024/02/22 05:49:14;;;;;;;2.85;0.40;;;;;;;5.74;100.00;97470.31;4987606;28;20050;-61
2024/02/22 05:51:42;;;;;;;0.25;0.20;;;;;;;5.75;100.00;97466.34;4987832;28;20057;-58
2024/02/22 05:54:09;;;;;;;2.08;0.38;;;;;;;5.74;100.00;97459.31;4988268;28;20062;-59
2024/02/22 05:56:36;;;;;;;1.98;0.95;;;;;;;5.74;100.00;97459.31;4987164;28;20053;-60
2024/02/22 05:59:04;;;;;;;0.93;0.20;;;;;;;5.73;100.00;97450.28;4986496;28;20038;-60
2024/02/22 06:01:34;;;;;;;10.07;1.23;;;;;;;5.72;100.00;97437.75;4987507;28;20065;-61
2024/02/22 06:04:03;;;;;;;2.58;0.40;;;;;;;5.72;100.00;97417.78;4987828;28;20566;-59
2024/02/22 06:06:30;;;;;;;2.20;0.30;;;;;;;5.72;100.00;97413.03;4983089;28;20054;-59
2024/02/22 06:08:58;;;;;;;0.40;0.20;;;;;;;5.70;100.00;97445.59;4988182;28;20045;-60
2024/02/22 06:11:25;;;;;;;3.45;0.40;;;;;;;5.69;100.00;97456.97;4987273;28;20410;-60
2024/02/22 06:13:53;;;;;;;3.70;0.30;;;;;;;5.67;100.00;97448.31;4987679;28;20061;-60
2024/02/22 06:16:20;;;;;;;2.65;0.43;;;;;;;5.62;100.00;97437.75;4986404;28;20504;-61
2024/02/22 06:18:48;;;;;;;3.20;0.73;;;;;;;5.59;100.00;97427.59;4987475;28;20060;-60
2024/02/22 06:21:15;;;;;;;3.22;0.55;;;;;;;5.57;100.00;97405.22;4987049;28;20531;-59
2024/02/22 06:23:42;;;;;;;0.60;0.57;;;;;;;5.56;100.00;97381.72;4987222;28;20050;-60
2024/02/22 06:26:10;;;;;;;1.73;0.30;;;;;;;5.52;100.00;97370.75;4986398;28;20455;-60
2024/02/22 06:28:37;;;;;;;1.15;0.30;;;;;;;5.50;100.00;97349.19;4986502;28;20077;-61
2024/02/22 06:31:05;;;;;;;0.43;0.28;;;;;;;5.49;100.00;97325.66;4986344;28;20042;-59
2024/02/22 06:33:35;;;;;;;1.65;0.30;;;;;;;5.46;100.00;97334.69;4987199;28;20050;-61
2024/02/22 06:36:03;;;;;;;3.33;0.80;;;;;;;5.43;100.00;97327.25;4986210;28;20065;-60
2024/02/22 06:38:30;;;;;;;2.15;0.30;;;;;;;5.38;100.00;97322.16;4986460;28;20408;-61
2024/02/22 06:41:01;;;;;;;2.65;0.50;;;;;;;5.35;100.00;97311.19;4986823;28;20061;-61
2024/02/22 06:43:28;;;;;;;1.73;0.38;;;;;;;5.32;100.00;97307.25;4986944;28;20061;-61
2024/02/22 06:45:56;;;;;;;2.38;0.40;;;;;;;5.31;100.00;97294.75;4987000;28;20055;-60
2024/02/22 06:48:23;;;;;;;4.18;0.50;;;;;;;5.29;100.00;97290.84;4986597;28;20532;-61
2024/02/22 06:50:50;;;;;;;2.63;0.60;;;;;;;5.26;100.00;97280.66;4986009;28;20046;-60
2024/02/22 06:53:17;;;;;;;2.85;0.50;;;;;;;5.25;100.00;97290.03;4986666;28;20054;-61
2024/02/22 06:55:45;;;;;;;0.95;0.47;;;;;;;5.23;100.00;97304.16;4986188;28;20057;-61
2024/02/22 06:58:12;;;;;;;2.05;0.50;;;;;;;5.20;100.00;97309.63;4986883;28;20050;-60
2024/02/22 07:00:40;;;;;;;3.38;0.60;;;;;;;5.17;100.00;97316.69;4986210;28;20054;-61
2024/02/22 07:03:09;;;;;;;0.30;0.30;;;;;;;5.15;100.00;97319.03;4987096;28;20403;-60
2024/02/22 07:05:37;;;;;;;1.23;0.55;;;;;;;5.16;100.00;97331.59;4985580;28;20416;-60
2024/02/22 07:08:05;;;;;;;2.92;0.50;;;;;;;5.18;100.00;97340.19;4986292;28;20293;-61
2024/02/22 07:10:32;;;;;;;3.58;0.77;;;;;;;5.15;100.00;97356.66;4985548;28;20283;-60
2024/02/22 07:12:59;;;;;;;0.77;0.68;;;;;;;5.16;100.00;97363.72;4987011;28;20073;-60
2024/02/22 07:15:27;;;;;;;2.20;1.60;;;;;;;5.15;100.00;97365.66;4985796;28;20402;-60
2024/02/22 07:17:54;;;;;;;1.45;0.55;;;;;;;5.13;100.00;97359.78;4986659;28;20054;-60
2024/02/22 07:20:22;;;;;;;8.73;1.40;;;;;;;5.11;100.00;97356.63;4986549;28;20077;-59
2024/02/22 07:22:52;;;;;;;5.65;1.85;;;;;;;5.11;100.00;97372.31;4987199;28;20057;-60
2024/02/22 07:25:20;;;;;;;3.75;0.73;;;;;;;5.09;100.00;97369.97;4985617;28;20050;-61
2024/02/22 07:27:50;;;;;;;2.28;0.60;;;;;;;5.06;100.00;97381.69;4987363;28;20050;-59
2024/02/22 07:30:19;;;;;;;3.90;0.70;;;;;;;5.05;100.00;97363.69;4985207;28;20467;-61
2024/02/22 07:32:46;;;;;;;7.50;1.00;;;;;;;5.06;100.00;97354.28;4984801;28;20073;-60
2024/02/22 07:35:14;;;;;;;1.73;0.68;;;;;;;5.08;100.00;97351.16;4985858;28;20050;-61
2024/02/22 07:37:42;;;;;;;2.75;0.70;;;;;;;5.09;100.00;97380.13;4989710;28;20500;-58
2024/02/22 07:40:10;;;;;;;2.75;1.00;;;;;;;5.09;100.00;97380.94;4990077;28;20054;-58
2024/02/22 07:42:39;;;;;;;3.10;1.10;;;;;;;5.07;100.00;97386.03;4990416;28;20408;-61
2024/02/22 07:45:06;;;;;;;2.83;0.88;;;;;;;5.04;100.00;97392.28;4989743;28;20612;-60
2024/02/22 07:47:34;;;;;;;3.47;1.25;;;;;;;5.04;100.00;97394.22;4990278;28;20145;-60
2024/02/22 07:50:01;;;;;;;6.10;1.90;;;;;;;5.01;100.00;97393.06;4990192;28;20070;-62
2024/02/22 07:52:29;;;;;;;2.65;1.15;;;;;;;5.00;100.00;97390.72;4990126;28;20519;-63
2024/02/22 07:54:56;;;;;;;1.25;0.93;;;;;;;4.99;100.00;97387.19;4990918;28;20058;-63
2024/02/22 07:57:23;;;;;;;2.88;1.00;;;;;;;4.98;100.00;97376.63;4990411;28;20571;-62
2024/02/22 07:59:55;;;;;;;6.68;1.10;;;;;;;4.99;100.00;97381.69;4990356;28;20073;-62
2024/02/22 08:02:24;;;;;;;5.85;1.00;;;;;;;4.99;100.00;97370.75;4989950;28;20053;-62
2024/02/22 08:04:52;;;;;;;2.72;1.08;;;;;;;4.99;100.00;97376.22;4988640;28;20054;-62
2024/02/22 08:07:20;;;;;;;3.67;1.20;;;;;;;4.99;100.00;97365.25;4989725;28;20058;-62
2024/02/22 08:09:48;;;;;;;7.82;1.95;;;;;;;5.00;100.00;97361.34;4991203;28;20100;-62
2024/02/22 08:12:15;;;;;;;2.75;0.70;;;;;;;5.02;100.00;97361.75;4989753;28;20046;-62
2024/02/22 08:14:42;;;;;;;6.63;1.50;;;;;;;5.01;100.00;97343.72;4987044;28;20063;-61
2024/02/22 08:17:17;;;;;;;3.53;0.80;;;;;;;5.01;100.00;97335.50;4989484;28;20053;-62
2024/02/22 08:19:47;;;;;;;3.63;0.80;;;;;;;5.00;100.00;97344.13;4989839;28;20499;-62
2024/02/22 08:22:16;;;;;;;14.73;1.90;;;;;;;4.99;100.00;97345.28;4989185;28;20632;-62
2024/02/22 08:24:43;;;;;;;9.30;1.15;;;;;;;4.98;100.00;97339.00;4989348;28;20080;-61
2024/02/22 08:27:11;;;;;;;10.75;3.25;;;;;;;4.98;100.00;97339.00;5005115;28;20062;-61
2024/02/22 08:29:39;;;;;;;3.13;0.65;;;;;;;5.00;100.00;97339.44;4989249;28;20728;-59
2024/02/22 08:32:07;;;;;;;7.15;0.90;;;;;;;5.05;100.00;97347.25;4988121;28;20515;-61
2024/02/22 08:34:35;;;;;;;8.70;0.90;;;;;;;5.09;100.00;97349.97;4989175;28;20081;-58
2024/02/22 08:37:02;;;;;;;3.53;1.00;;;;;;;5.11;100.00;97348.41;4989964;28;20047;-61
2024/02/22 08:39:29;;;;;;;2.97;1.02;;;;;;;5.14;100.00;97360.56;4989599;28;20050;-57
2024/02/22 08:41:57;;;;;;;2.97;0.93;;;;;;;5.15;100.00;97354.69;4985153;28;20077;-60
2024/02/22 08:44:26;;;;;;;6.28;0.85;;;;;;;5.18;100.00;97361.34;4989722;28;20050;-59
2024/02/22 08:46:53;;;;;;;5.65;0.65;;;;;;;5.17;100.00;97366.03;4989172;28;20054;-60
2024/02/22 08:49:21;;;;;;;2.83;0.57;;;;;;;5.16;100.00;97375.47;4989525;28;20050;-57
2024/02/22 08:51:48;;;;;;;1.92;0.60;;;;;;;5.19;100.00;97360.19;4989598;28;20077;-59
2024/02/22 08:54:16;;;;;;;1.38;0.70;;;;;;;5.24;100.00;97371.53;4979553;28;20054;-60
2024/02/22 08:56:45;;;;;;;5.40;1.15;;;;;;;5.28;100.00;97366.03;4989243;28;20534;-60
2024/02/22 08:59:12;;;;;;;2.25;0.63;;;;;;;5.30;100.00;97367.22;4989083;28;20058;-60
2024/02/22 09:01:39;;;;;;;2.22;1.15;;;;;;;5.28;100.00;97368.78;4988943;28;20061;-60
2024/02/22 09:04:07;;;;;;;5.22;1.02;;;;;;;5.25;100.00;97366.81;4989103;28;20042;-59
2024/02/22 09:06:35;;;;;;;3.88;0.73;;;;;;;5.24;100.00;97363.28;4989121;28;20054;-60
2024/02/22 09:09:07;;;;;;;2.30;0.80;;;;;;;5.23;100.00;97375.47;4989492;28;20077;-59
2024/02/22 09:11:35;;;;;;;4.53;0.80;;;;;;;5.23;100.00;97372.72;5003242;28;20050;-59
2024/02/22 09:14:02;;;;;;;3.05;0.93;;;;;;;5.23;100.00;97364.50;4989610;28;20408;-59
2024/02/22 09:16:30;;;;;;;2.50;0.63;;;;;;;5.22;100.00;97362.13;4988874;28;20459;-60
2024/02/22 09:18:57;;;;;;;5.10;1.20;;;;;;;5.23;100.00;97353.53;4985297;28;20046;-60
2024/02/22 09:21:24;;;;;;;2.60;0.65;;;;;;;5.23;100.00;97348.03;4983850;28;20046;-59
2024/02/22 09:23:54;;;;;;;1.85;0.90;;;;;;;5.28;100.00;97333.94;4988643;28;20081;-60
2024/02/22 09:26:22;;;;;;;2.92;0.90;;;;;;;5.35;100.00;97335.88;4976172;28;20057;-60
2024/02/22 09:28:50;;;;;;;2.70;0.98;;;;;;;5.41;100.00;97329.59;4988579;28;20050;-60
2024/02/22 09:31:17;;;;;;;3.38;0.80;;;;;;;5.43;100.00;97329.97;4976444;28;20047;-59
2024/02/22 09:33:45;;;;;;;3.65;0.60;;;;;;;5.43;100.00;97324.50;4988051;28;20065;-60
2024/02/22 09:36:12;;;;;;;4.50;0.90;;;;;;;5.40;100.00;97322.53;4988344;28;20046;-60
2024/02/22 09:38:41;;;;;;;7.00;0.93;;;;;;;5.40;100.00;97336.25;4988737;28;20246;-60
2024/02/22 09:41:09;;;;;;;3.13;0.65;;;;;;;5.37;100.00;97325.31;4988773;28;20567;-60
2024/02/22 09:43:36;;;;;;;4.20;0.90;;;;;;;5.38;100.00;97330.38;4988552;28;20050;-59
2024/02/22 09:46:04;;;;;;;0.88;0.50;;;;;;;5.41;100.00;97329.59;4988171;28;20054;-60
2024/02/22 09:48:32;;;;;;;4.28;1.00;;;;;;;5.45;100.00;97326.88;4987939;28;20046;-59
2024/02/22 09:51:00;;;;;;;2.30;0.80;;;;;;;5.48;100.00;97332.31;4988580;28;20057;-60
2024/02/22 09:53:28;;;;;;;2.58;0.85;;;;;;;5.46;100.00;97331.16;4987882;28;20062;-59
2024/02/22 09:55:55;;;;;;;2.83;0.63;;;;;;;5.40;100.00;97319.78;4985516;28;20055;-60
2024/02/22 09:58:23;;;;;;;3.83;0.82;;;;;;;5.40;100.00;97328.03;4987363;28;20768;-60
2024/02/22 10:00:51;;;;;;;6.72;0.75;;;;;;;5.39;100.00;97326.47;4978305;28;20042;-59
2024/02/22 10:03:29;;;;;;;3.95;1.13;;;;;;;5.38;100.00;97333.13;4985192;28;20051;-60
2024/02/22 10:05:58;;;;;;;3.67;1.42;;;;;;;5.41;100.00;97337.03;4988149;28;20058;-60
2024/02/22 10:08:25;;;;;;;2.83;1.40;;;;;;;5.41;100.00;97331.56;4987913;28;20508;-60
2024/02/22 10:11:04;;;;;;;3.17;0.50;;;;;;;5.41;100.00;97339.78;4987388;28;20080;-60
2024/02/22 10:13:33;;;;;;;3.63;0.95;;;;;;;5.41;100.00;97337.81;4987943;28;20050;-60
2024/02/22 10:16:14;;;;;;;1.23;0.70;;;;;;;5.40;100.00;97330.75;4987469;28;20065;-59
2024/02/22 10:18:42;;;;;;;2.15;0.68;;;;;;;5.43;100.00;97346.44;4983441;28;20058;-59
2024/02/22 10:21:17;;;;;;;3.67;0.73;;;;;;;5.43;100.00;97343.69;4988208;28;20751;-60
2024/02/22 10:23:54;;;;;;;2.92;0.70;;;;;;;5.44;100.00;97342.53;4987698;28;20054;-60
2024/02/22 10:26:24;;;;;;;5.40;0.82;;;;;;;5.50;100.00;97337.44;4986099;28;20046;-60
2024/02/22 10:28:57;;;;;;;10.38;1.27;;;;;;;5.56;100.00;97348.78;4986708;28;20565;-59
2024/02/22 10:31:24;;;;;;;;;;;;;;;5.54;100.00;97340.94;4975586;28;20415;-59
2024/02/22 10:33:53;;;;;;;5.30;0.98;;;;;;;5.56;100.00;97355.03;4987768;28;19929;-60
2024/02/22 10:36:23;;;;;;;4.55;1.13;;;;;;;5.61;100.00;97353.88;4987493;28;20050;-60
2024/02/22 10:38:51;;;;;;;2.90;0.77;;;;;;;5.61;100.00;97356.63;4987077;28;20046;-59
2024/02/22 10:41:18;;;;;;;3.72;0.93;;;;;;;5.66;100.00;97358.97;4987584;28;20058;-60
2024/02/22 10:43:50;;;;;;;2.38;0.90;;;;;;;5.69;100.00;97347.19;4987035;28;20049;-60
2024/02/22 10:46:18;;;;;;;3.60;0.80;;;;;;;5.72;100.00;97363.63;4987830;28;20054;-60
2024/02/22 10:48:51;;;;;;;5.47;1.17;;;;;;;5.74;100.00;97361.31;4987459;28;20046;-59
2024/02/22 10:51:20;;;;;;;3.63;1.77;;;;;;;5.77;100.00;97367.97;4987597;28;20065;-59
2024/02/22 10:53:55;;;;;;;4.47;1.00;;;;;;;5.77;100.00;97371.47;4980179;28;20051;-60
2024/02/22 10:56:24;;;;;;;3.35;1.10;;;;;;;5.79;100.00;97385.59;4986403;28;20046;-60
2024/02/22 10:58:57;;;;;;;5.47;2.08;;;;;;;5.80;100.00;97381.66;4987240;28;20061;-60
2024/02/22 11:01:26;;;;;;;4.25;0.90;;;;;;;5.84;100.00;97387.16;4986806;28;20062;-60
2024/02/22 11:03:55;;;;;;;5.72;1.83;;;;;;;5.85;100.00;97388.75;4987630;28;20530;-60
2024/02/22 11:06:26;;;;;;;5.20;0.93;;;;;;;5.89;100.00;97378.53;4986830;28;20061;-60
2024/02/22 11:09:00;;;;;;;1.50;0.70;;;;;;;5.96;100.00;97384.00;4987245;28;20053;-60
2024/02/22 11:11:30;;;;;;;8.20;1.42;;;;;;;5.97;100.00;97391.88;4986427;28;20546;-60
2024/02/22 11:13:59;;;;;;;4.25;0.80;;;;;;;6.00;100.00;97398.53;4977128;28;20599;-60
2024/02/22 11:16:34;;;;;;;5.45;2.20;;;;;;;6.06;100.00;97399.69;4985267;28;20046;-60
2024/02/22 11:19:09;;;;;;;5.05;1.05;;;;;;;6.12;100.00;97403.56;4987072;28;20524;-60
2024/02/22 11:21:37;;;;;;;2.45;1.10;;;;;;;6.13;100.00;97396.91;4975820;28;20049;-60
2024/02/22 11:24:10;;;;;;;2.90;0.65;;;;;;;6.13;100.00;97399.66;4987153;28;20054;-60
2024/02/22 11:26:39;;;;;;;4.75;1.30;;;;;;;6.06;100.00;97394.19;4987346;28;20050;-59
2024/02/22 11:29:07;;;;;;;5.45;0.80;;;;;;;6.06;100.00;97396.94;4986912;28;20062;-60
2024/02/22 11:31:37;;;;;;;3.40;1.27;;;;;;;6.08;100.00;97389.09;4987003;28;20065;-60
2024/02/22 11:34:06;;;;;;;5.22;0.85;;;;;;;6.05;100.00;97387.91;4985077;28;20632;-59
2024/02/22 11:36:33;;;;;;;3.15;0.63;;;;;;;6.03;100.00;97384.78;4987151;28;20058;-60
2024/02/22 11:39:04;;;;;;;6.07;2.05;;;;;;;6.09;100.00;97388.69;5001829;28;20061;-60